createdAt,value
2018-04-23T00:00:34.523Z,10.00
2018-04-23T00:03:02.495Z,10.83
2018-04-23T00:05:30.470Z,12.43
2018-04-23T00:07:58.463Z,10.90
2018-04-23T00:10:26.426Z,9.73
2018-04-23T00:12:54.390Z,9.93
2018-04-23T00:15:22.381Z,10.83
2018-04-23T00:17:50.347Z,9.57
2018-04-23T00:20:18.354Z,9.53
2018-04-23T00:22:46.364Z,10.87
2018-04-23T00:25:14.348Z,12.33
2018-04-23T00:27:42.319Z,10.43
2018-04-23T00:30:10.332Z,11.80
2018-04-23T00:32:38.402Z,13.70
2018-04-23T00:35:06.397Z,11.10
2018-04-23T00:37:34.413Z,11.03
2018-04-23T00:40:02.434Z,12.83
2018-04-23T00:42:30.399Z,11.17
2018-04-23T00:44:58.691Z,11.73
2018-04-23T00:47:26.671Z,11.97
2018-04-23T00:49:55.250Z,11.73
2018-04-23T00:52:23.254Z,11.40
2018-04-23T00:54:51.239Z,11.93
2018-04-23T00:57:19.243Z,11.83
2018-04-23T00:59:47.235Z,12.90
2018-04-23T01:02:15.211Z,12.40
2018-04-23T01:04:43.200Z,12.33
2018-04-23T01:07:11.196Z,13.63
2018-04-23T01:09:39.224Z,13.53
2018-04-23T01:12:07.198Z,12.87
2018-04-23T01:14:35.159Z,14.57
2018-04-23T01:17:03.160Z,15.17
2018-04-23T01:19:31.139Z,13.70
2018-04-23T01:21:59.159Z,14.60
2018-04-23T01:24:27.146Z,14.37
2018-04-23T01:26:55.119Z,13.47
2018-04-23T01:29:23.103Z,15.90
2018-04-23T01:31:51.084Z,15.80
2018-04-23T01:34:19.060Z,14.30
2018-04-23T01:36:47.051Z,15.43
2018-04-23T01:39:15.035Z,14.20
2018-04-23T01:41:43.038Z,15.93
2018-04-23T01:44:11.016Z,15.93
2018-04-23T01:46:39.010Z,15.70
2018-04-23T01:49:06.983Z,16.33
2018-04-23T01:51:35.039Z,15.83
2018-04-23T01:54:03.027Z,17.93
2018-04-23T01:56:31.024Z,18.77
2018-04-23T01:58:59.044Z,18.27
2018-04-23T02:01:27.059Z,18.60
2018-04-23T02:03:55.231Z,19.87
2018-04-23T02:06:23.307Z,19.57
2018-04-23T02:08:51.303Z,18.33
2018-04-23T02:11:19.285Z,19.83
2018-04-23T02:13:47.271Z,20.10
2018-04-23T02:16:15.299Z,20.97
2018-04-23T02:18:43.273Z,19.27
2018-04-23T02:21:11.278Z,19.93
2018-04-23T02:23:39.247Z,20.03
2018-04-23T02:26:07.238Z,18.00
2018-04-23T02:28:35.239Z,20.70
2018-04-23T02:31:03.219Z,20.27
2018-04-23T02:33:31.220Z,20.30
2018-04-23T02:35:59.212Z,20.63
2018-04-23T02:38:27.192Z,20.07
2018-04-23T02:40:55.196Z,19.10
2018-04-23T02:43:23.179Z,22.07
2018-04-23T02:45:51.183Z,20.13
2018-04-23T02:48:19.151Z,20.30
2018-04-23T02:50:47.119Z,20.17
2018-04-23T02:53:15.098Z,20.30
2018-04-23T02:55:43.087Z,22.30
2018-04-23T02:58:11.090Z,20.43
2018-04-23T03:00:39.067Z,20.33
2018-04-23T03:03:07.077Z,20.10
2018-04-23T03:05:35.079Z,19.93
2018-04-23T03:08:03.078Z,20.07
2018-04-23T03:10:31.116Z,22.43
2018-04-23T03:12:59.115Z,19.93
2018-04-23T03:15:27.193Z,20.97
2018-04-23T03:17:55.291Z,23.20
2018-04-23T03:20:23.271Z,22.10
2018-04-23T03:22:51.240Z,20.63
2018-04-23T03:25:19.208Z,22.50
2018-04-23T03:27:47.179Z,22.67
2018-04-23T03:30:15.169Z,22.47
2018-04-23T03:32:43.154Z,20.43
2018-04-23T03:35:11.144Z,22.00
2018-04-23T03:37:39.135Z,21.10
2018-04-23T03:40:07.218Z,21.67
2018-04-23T03:42:35.211Z,21.97
2018-04-23T03:45:03.170Z,21.90
2018-04-23T03:47:31.261Z,21.93
2018-04-23T03:49:59.240Z,20.50
2018-04-23T03:52:27.324Z,20.17
2018-04-23T03:54:55.407Z,19.40
2018-04-23T03:57:23.763Z,20.53
2018-04-23T03:59:52.263Z,21.00
2018-04-23T04:02:20.516Z,19.60
2018-04-23T04:04:48.495Z,23.50
2018-04-23T04:07:16.497Z,21.00
2018-04-23T04:09:45.543Z,20.00
2018-04-23T04:12:26.077Z,19.63
2018-04-23T04:15:05.868Z,19.07
2018-04-23T04:20:25.539Z,19.40
2018-04-23T04:22:53.615Z,18.03
2018-04-23T04:25:21.613Z,17.13
2018-04-23T04:27:49.600Z,17.67
2018-04-23T04:30:17.591Z,17.40
2018-04-23T04:32:46.300Z,17.40
2018-04-23T04:35:14.879Z,17.13
2018-04-23T04:37:42.901Z,16.97
2018-04-23T04:40:10.902Z,16.57
2018-04-23T04:42:38.884Z,16.00
2018-04-23T04:45:06.866Z,19.20
2018-04-23T04:47:35.505Z,16.27
2018-04-23T04:50:03.505Z,16.80
2018-04-23T04:52:31.540Z,15.67
2018-04-23T04:54:59.757Z,16.30
2018-04-23T04:57:27.747Z,15.30
2018-04-23T04:59:55.780Z,14.70
2018-04-23T05:02:23.860Z,14.67
2018-04-23T05:04:51.844Z,15.23
2018-04-23T05:07:19.849Z,14.43
2018-04-23T05:09:47.814Z,15.20
2018-04-23T05:12:15.804Z,15.10
2018-04-23T05:14:43.788Z,14.20
2018-04-23T05:17:11.795Z,15.00
2018-04-23T05:19:39.784Z,14.93
2018-04-23T05:22:07.756Z,14.30
2018-04-23T05:24:35.742Z,14.60
2018-04-23T05:27:04.618Z,16.00
2018-04-23T05:29:32.624Z,15.70
2018-04-23T05:34:54.976Z,13.10
2018-04-23T05:37:23.115Z,13.57
2018-04-23T05:43:42.671Z,12.90
2018-04-23T05:46:20.637Z,12.73
2018-04-23T05:48:48.653Z,13.57
2018-04-23T05:51:16.644Z,11.87
2018-04-23T05:53:44.707Z,11.60
2018-04-23T05:56:12.687Z,12.63
2018-04-23T05:58:40.680Z,10.80
2018-04-23T06:01:08.671Z,11.70
2018-04-23T06:03:36.664Z,12.20
2018-04-23T06:06:05.464Z,14.97
2018-04-23T06:08:33.448Z,12.30
2018-04-23T06:11:01.449Z,11.50
2018-04-23T06:13:29.439Z,12.50
2018-04-23T06:15:57.472Z,13.77
2018-04-23T06:18:26.052Z,12.37
2018-04-23T06:20:54.046Z,12.60
2018-04-23T06:23:22.056Z,13.03
2018-04-23T06:25:50.037Z,12.33
2018-04-23T06:28:18.095Z,14.70
2018-04-23T06:30:46.092Z,13.20
2018-04-23T06:33:14.096Z,12.83
2018-04-23T06:35:42.102Z,14.97
2018-04-23T06:38:10.094Z,12.23
2018-04-23T06:40:38.116Z,14.80
2018-04-23T06:43:06.097Z,14.00
2018-04-23T06:45:34.091Z,14.63
2018-04-23T06:48:02.130Z,14.70
2018-04-23T06:50:30.113Z,13.43
2018-04-23T06:52:58.136Z,15.90
2018-04-23T06:55:26.118Z,15.53
2018-04-23T06:57:54.181Z,15.50
2018-04-23T07:00:22.155Z,13.97
2018-04-23T07:02:50.148Z,13.97
2018-04-23T07:05:18.135Z,13.37
2018-04-23T07:07:46.132Z,14.97
2018-04-23T07:10:14.168Z,18.00
2018-04-23T07:12:42.168Z,19.93
2018-04-23T07:15:10.174Z,15.93
2018-04-23T07:17:38.175Z,18.13
2018-04-23T07:20:06.188Z,22.63
2018-04-23T07:22:34.182Z,18.67
2018-04-23T07:25:02.183Z,19.83
2018-04-23T07:27:30.920Z,19.23
2018-04-23T07:29:58.905Z,19.50
2018-04-23T07:32:26.887Z,21.37
2018-04-23T07:34:54.933Z,19.30
2018-04-23T07:37:22.937Z,18.80
2018-04-23T07:39:50.927Z,26.57
2018-04-23T07:42:18.926Z,32.03
2018-04-23T07:44:46.916Z,20.80
2018-04-23T07:47:14.898Z,22.53
2018-04-23T07:49:42.908Z,22.13
2018-04-23T07:52:10.901Z,23.60
2018-04-23T07:54:38.927Z,21.40
2018-04-23T07:57:06.924Z,25.73
2018-04-23T07:59:34.942Z,22.43
2018-04-23T08:02:03.013Z,22.27
2018-04-23T08:04:31.012Z,23.13
2018-04-23T08:06:58.985Z,21.43
2018-04-23T08:09:26.960Z,22.40
2018-04-23T08:11:54.969Z,22.63
2018-04-23T08:14:22.957Z,24.07
2018-04-23T08:16:50.948Z,22.60
2018-04-23T08:19:18.920Z,23.40
2018-04-23T08:21:46.905Z,22.80
2018-04-23T08:24:14.898Z,26.77
2018-04-23T08:26:42.884Z,28.00
2018-04-23T08:29:10.860Z,30.20
2018-04-23T08:31:38.845Z,30.53
2018-04-23T08:34:06.815Z,28.27
2018-04-23T08:36:34.848Z,30.27
2018-04-23T08:39:02.831Z,31.43
2018-04-23T08:41:30.832Z,30.77
2018-04-23T08:43:58.856Z,29.20
2018-04-23T08:46:26.814Z,28.53
2018-04-23T08:48:54.793Z,29.60
2018-04-23T08:51:22.815Z,30.47
2018-04-23T08:53:50.808Z,31.53
2018-04-23T08:56:18.807Z,30.50
2018-04-23T08:58:46.796Z,29.97
2018-04-23T09:01:14.789Z,31.87
2018-04-23T09:03:42.755Z,32.00
2018-04-23T09:06:10.756Z,33.77
2018-04-23T09:08:38.764Z,36.73
2018-04-23T09:11:06.748Z,35.67
2018-04-23T09:13:34.741Z,36.83
2018-04-23T09:16:02.716Z,36.80
2018-04-23T09:18:30.715Z,37.90
2018-04-23T09:20:58.704Z,37.00
2018-04-23T09:23:26.692Z,37.90
2018-04-23T09:25:54.663Z,35.40
2018-04-23T09:28:22.654Z,37.53
2018-04-23T09:30:50.641Z,37.60
2018-04-23T09:33:18.709Z,36.17
2018-04-23T09:35:46.707Z,35.80
2018-04-23T09:38:14.721Z,30.27
2018-04-23T09:40:42.712Z,32.00
2018-04-23T09:43:10.718Z,32.43
2018-04-23T09:45:38.701Z,33.33
2018-04-23T09:48:06.698Z,33.63
2018-04-23T09:50:34.677Z,32.97
2018-04-23T09:53:02.670Z,31.63
2018-04-23T09:55:30.669Z,32.47
2018-04-23T09:57:58.680Z,32.90
2018-04-23T10:00:31.534Z,30.43
2018-04-23T10:02:59.503Z,30.53
2018-04-23T10:05:27.486Z,32.53
2018-04-23T10:07:55.643Z,38.93
2018-04-23T10:10:23.634Z,35.00
2018-04-23T10:12:51.608Z,36.60
2018-04-23T10:15:19.608Z,32.37
2018-04-23T10:17:47.580Z,36.17
2018-04-23T10:20:15.585Z,37.90
2018-04-23T10:22:43.607Z,39.50
2018-04-23T10:25:11.610Z,37.23
2018-04-23T10:27:39.616Z,38.53
2018-04-23T10:30:07.610Z,36.77
2018-04-23T10:32:35.599Z,38.27
2018-04-23T10:35:03.595Z,36.43
2018-04-23T10:37:31.562Z,33.60
2018-04-23T10:39:59.569Z,32.80
2018-04-23T10:42:27.532Z,31.33
2018-04-23T10:44:55.540Z,28.77
2018-04-23T10:47:23.528Z,34.07
2018-04-23T10:49:51.508Z,34.00
2018-04-23T10:52:19.513Z,31.90
2018-04-23T10:54:47.496Z,30.53
2018-04-23T10:57:15.510Z,32.40
2018-04-23T10:59:43.525Z,30.40
2018-04-23T11:02:11.492Z,33.13
2018-04-23T11:04:39.492Z,30.77
2018-04-23T11:07:07.494Z,33.00
2018-04-23T11:09:35.541Z,30.60
2018-04-23T11:12:03.503Z,30.90
2018-04-23T11:14:31.475Z,31.17
2018-04-23T11:16:59.476Z,30.73
2018-04-23T11:19:27.447Z,29.20
2018-04-23T11:21:55.516Z,31.20
2018-04-23T11:24:23.479Z,29.93
2018-04-23T11:26:51.530Z,32.30
2018-04-23T11:29:19.512Z,32.13
2018-04-23T11:31:47.517Z,29.90
2018-04-23T11:34:15.504Z,30.53
2018-04-23T11:36:43.545Z,25.60
2018-04-23T11:39:11.508Z,25.93
2018-04-23T11:41:39.523Z,25.00
2018-04-23T11:44:07.519Z,25.87
2018-04-23T11:46:35.574Z,24.80
2018-04-23T11:49:03.543Z,23.67
2018-04-23T11:51:31.532Z,23.83
2018-04-23T11:53:59.537Z,22.03
2018-04-23T11:56:27.553Z,20.77
2018-04-23T11:58:55.538Z,20.43
2018-04-23T12:01:23.535Z,20.90
2018-04-23T12:03:51.562Z,20.97
2018-04-23T12:06:19.528Z,20.80
2018-04-23T12:08:47.528Z,20.63
2018-04-23T12:11:15.520Z,20.90
2018-04-23T12:13:43.508Z,23.37
2018-04-23T12:16:11.494Z,20.00
2018-04-23T12:18:39.508Z,18.33
2018-04-23T12:21:07.501Z,16.97
2018-04-23T12:23:35.506Z,19.40
2018-04-23T12:26:03.478Z,19.13
2018-04-23T12:28:31.471Z,19.73
2018-04-23T12:30:59.452Z,18.73
2018-04-23T12:33:27.432Z,18.97
2018-04-23T12:35:55.407Z,16.07
2018-04-23T12:38:23.395Z,18.20
2018-04-23T12:40:51.374Z,17.50
2018-04-23T12:43:19.374Z,15.57
2018-04-23T12:45:47.372Z,15.30
2018-04-23T12:48:15.367Z,12.70
2018-04-23T12:50:43.363Z,13.10
2018-04-23T12:53:11.343Z,12.93
2018-04-23T12:55:39.369Z,9.43
2018-04-23T12:58:07.360Z,14.30
2018-04-23T13:00:35.323Z,10.60
2018-04-23T13:03:03.293Z,9.43
2018-04-23T13:05:31.282Z,9.83
2018-04-23T13:07:59.269Z,10.23
2018-04-23T13:10:27.240Z,8.53
2018-04-23T13:12:55.199Z,8.37
2018-04-23T13:15:23.175Z,8.30
2018-04-23T13:17:51.144Z,10.33
2018-04-23T13:20:19.144Z,13.43
2018-04-23T13:22:47.119Z,17.93
2018-04-23T13:25:15.104Z,15.47
2018-04-23T13:27:43.117Z,15.13
2018-04-23T13:30:11.104Z,14.80
2018-04-23T13:32:39.096Z,13.73
2018-04-23T13:35:07.081Z,12.27
2018-04-23T13:37:35.071Z,13.50
2018-04-23T13:40:03.059Z,12.43
2018-04-23T13:42:31.089Z,11.60
2018-04-23T13:44:59.083Z,15.10
2018-04-23T13:47:27.083Z,15.60
2018-04-23T13:49:55.076Z,17.93
2018-04-23T13:52:23.054Z,20.60
2018-04-23T13:54:51.047Z,18.43
2018-04-23T13:57:19.024Z,10.70
2018-04-23T13:59:47.025Z,22.40
2018-04-23T14:02:15.002Z,15.97
2018-04-23T14:04:42.968Z,12.27
2018-04-23T14:07:10.959Z,9.83
2018-04-23T14:09:39.047Z,17.40
2018-04-23T14:12:07.044Z,17.10
2018-04-23T14:14:35.030Z,12.37
2018-04-23T14:17:03.010Z,11.90
2018-04-23T14:19:30.985Z,8.87
2018-04-23T14:21:58.986Z,8.80
2018-04-23T14:24:26.949Z,9.00
2018-04-23T14:26:54.930Z,6.30
2018-04-23T14:29:22.923Z,6.73
2018-04-23T14:31:50.901Z,6.83
2018-04-23T14:34:18.898Z,6.50
2018-04-23T14:36:46.873Z,6.80
2018-04-23T14:39:14.847Z,5.53
2018-04-23T14:41:42.849Z,5.10
2018-04-23T14:44:10.828Z,6.37
2018-04-23T14:46:38.811Z,5.07
2018-04-23T14:49:06.768Z,7.10
2018-04-23T14:51:34.756Z,11.37
2018-04-23T14:54:02.731Z,7.67
2018-04-23T14:56:30.727Z,13.47
2018-04-23T14:58:58.759Z,25.10
2018-04-23T15:01:26.746Z,14.47
2018-04-23T15:03:54.748Z,24.03
2018-04-23T15:06:22.727Z,11.27
2018-04-23T15:08:50.708Z,11.03
2018-04-23T15:11:18.676Z,6.50
2018-04-23T15:13:46.707Z,4.83
2018-04-23T15:16:14.908Z,8.73
2018-04-23T15:18:42.958Z,4.60
2018-04-23T15:21:10.963Z,5.67
2018-04-23T15:23:39.061Z,7.80
2018-04-23T15:26:07.024Z,4.33
2018-04-23T15:28:35.017Z,3.80
2018-04-23T15:31:02.973Z,3.90
2018-04-23T15:33:31.028Z,6.10
2018-04-23T15:35:59.118Z,4.60
2018-04-23T15:38:27.092Z,4.10
2018-04-23T15:40:55.088Z,5.07
2018-04-23T15:43:23.082Z,5.30
2018-04-23T15:45:51.077Z,3.57
2018-04-23T15:48:19.083Z,4.30
2018-04-23T15:50:47.315Z,11.00
2018-04-23T15:53:15.293Z,4.03
2018-04-23T15:55:43.284Z,9.60
2018-04-23T15:58:11.437Z,3.23
2018-04-23T16:00:39.446Z,6.10
2018-04-23T16:03:07.437Z,6.00
2018-04-23T16:05:35.412Z,3.00
2018-04-23T16:08:03.383Z,3.00
2018-04-23T16:10:31.422Z,5.67
2018-04-23T16:12:59.391Z,3.70
2018-04-23T16:15:27.427Z,3.43
2018-04-23T16:17:55.501Z,2.20
2018-04-23T16:20:23.473Z,2.60
2018-04-23T16:22:51.488Z,8.70
2018-04-23T16:25:19.484Z,6.87
2018-04-23T16:27:47.456Z,8.30
2018-04-23T16:30:15.453Z,2.67
2018-04-23T16:32:43.431Z,3.33
2018-04-23T16:35:11.641Z,2.73
2018-04-23T16:37:39.630Z,2.90
2018-04-23T16:40:07.600Z,2.00
2018-04-23T16:42:35.585Z,2.20
2018-04-23T16:45:03.607Z,6.97
2018-04-23T16:47:31.745Z,2.20
2018-04-23T16:49:59.730Z,3.27
2018-04-23T16:52:27.794Z,2.77
2018-04-23T16:54:55.790Z,3.70
2018-04-23T16:57:23.755Z,3.83
2018-04-23T16:59:51.800Z,3.47
2018-04-23T17:02:21.079Z,3.63
2018-04-23T17:04:49.732Z,3.80
2018-04-23T17:07:17.716Z,3.77
2018-04-23T17:09:45.767Z,3.47
2018-04-23T17:12:14.120Z,2.43
2018-04-23T17:14:42.094Z,4.20
2018-04-23T17:17:10.086Z,4.43
2018-04-23T17:19:38.279Z,2.43
2018-04-23T17:22:06.287Z,2.33
2018-04-23T17:24:34.248Z,7.03
2018-04-23T17:27:02.245Z,2.80
2018-04-23T17:29:30.278Z,3.20
2018-04-23T17:31:58.228Z,6.33
2018-04-23T17:34:26.212Z,2.90
2018-04-23T17:36:54.255Z,3.70
2018-04-23T17:39:22.236Z,2.30
2018-04-23T17:41:50.236Z,4.47
2018-04-23T17:44:19.304Z,2.00
2018-04-23T17:46:47.367Z,3.00
2018-04-23T17:49:15.359Z,2.17
2018-04-23T17:51:43.589Z,4.17
2018-04-23T17:54:11.571Z,2.53
2018-04-23T17:56:39.554Z,4.13
2018-04-23T17:59:07.508Z,3.60
2018-04-23T18:01:35.508Z,3.27
2018-04-23T18:04:03.484Z,5.87
2018-04-23T18:06:31.480Z,3.50
2018-04-23T18:08:59.514Z,5.97
2018-04-23T18:11:27.534Z,3.80
2018-04-23T18:13:55.554Z,4.43
2018-04-23T18:16:24.639Z,1.93
2018-04-23T18:18:52.749Z,3.07
2018-04-23T18:21:20.720Z,2.33
2018-04-23T18:23:48.725Z,2.17
2018-04-23T18:26:16.732Z,5.63
2018-04-23T18:28:44.715Z,2.40
2018-04-23T18:31:12.717Z,3.10
2018-04-23T18:33:40.718Z,2.67
2018-04-23T18:36:08.739Z,5.03
2018-04-23T18:38:36.942Z,3.00
2018-04-23T18:41:04.914Z,3.43
2018-04-23T18:43:32.901Z,4.10
2018-04-23T18:46:00.868Z,3.00
2018-04-23T18:48:28.859Z,3.33
2018-04-23T18:50:56.828Z,2.30
2018-04-23T18:53:24.875Z,3.73
2018-04-23T18:55:53.592Z,3.13
2018-04-23T18:58:22.459Z,4.63
2018-04-23T19:00:50.486Z,6.20
2018-04-23T19:03:18.468Z,4.53
2018-04-23T19:05:46.462Z,5.87
2018-04-23T19:08:14.434Z,4.50
2018-04-23T19:10:42.434Z,3.03
2018-04-23T19:13:10.422Z,2.47
2018-04-23T19:15:39.040Z,5.50
2018-04-23T19:18:07.023Z,5.37
2018-04-23T19:20:35.033Z,4.50
2018-04-23T19:23:03.026Z,4.20
2018-04-23T19:25:31.035Z,4.00
2018-04-23T19:27:59.038Z,4.53
2018-04-23T19:30:27.027Z,4.80
2018-04-23T19:32:55.055Z,3.60
2018-04-23T19:35:23.037Z,4.30
2018-04-23T19:37:51.126Z,4.83
2018-04-23T19:40:19.067Z,4.30
2018-04-23T19:42:47.060Z,4.63
2018-04-23T19:45:15.064Z,4.77
2018-04-23T19:47:43.069Z,5.30
2018-04-23T19:50:11.062Z,4.30
2018-04-23T19:52:39.083Z,4.43
2018-04-23T19:55:07.121Z,3.70
2018-04-23T19:57:35.126Z,4.57
2018-04-23T20:00:03.116Z,6.40
2018-04-23T20:02:31.127Z,39.50
2018-04-23T20:04:59.130Z,24.73
2018-04-23T20:07:27.140Z,88.40
2018-04-23T20:09:55.145Z,9.53
2018-04-23T20:12:23.564Z,7.30
2018-04-23T20:14:51.585Z,3.87
2018-04-23T20:17:19.652Z,4.13
2018-04-23T20:19:47.651Z,3.30
2018-04-23T20:22:15.651Z,4.77
2018-04-23T20:24:43.636Z,4.10
2018-04-23T20:27:11.604Z,5.60
2018-04-23T20:29:39.612Z,3.03
2018-04-23T20:32:07.605Z,5.70
2018-04-23T20:34:35.898Z,3.87
2018-04-23T20:37:03.860Z,5.23
2018-04-23T20:39:31.924Z,4.70
2018-04-23T20:41:59.892Z,7.20
2018-04-23T20:44:27.933Z,4.70
2018-04-23T20:46:55.920Z,3.73
2018-04-23T20:49:23.911Z,3.93
2018-04-23T20:51:51.947Z,6.47
2018-04-23T20:54:19.936Z,3.63
2018-04-23T20:56:47.905Z,4.50
2018-04-23T20:59:15.939Z,20.13
2018-04-23T21:01:43.983Z,19.30
2018-04-23T21:04:11.983Z,4.67
2018-04-23T21:06:39.975Z,3.87
2018-04-23T21:09:07.975Z,4.77
2018-04-23T21:11:35.965Z,3.13
2018-04-23T21:14:03.991Z,2.73
2018-04-23T21:16:32.004Z,4.90
2018-04-23T21:19:00.021Z,4.73
2018-04-23T21:21:28.070Z,7.47
2018-04-23T21:23:56.081Z,3.30
2018-04-23T21:26:24.086Z,3.73
2018-04-23T21:28:52.062Z,2.93
2018-04-23T21:31:20.200Z,2.60
2018-04-23T21:33:48.180Z,3.10
2018-04-23T21:36:16.224Z,20.63
2018-04-23T21:38:44.235Z,37.23
2018-04-23T21:41:12.238Z,4.53
2018-04-23T21:43:40.321Z,6.70
2018-04-23T21:46:08.323Z,8.03
2018-04-23T21:48:36.400Z,3.30
2018-04-23T21:51:04.385Z,2.77
2018-04-23T21:53:32.372Z,5.40
2018-04-23T21:56:00.391Z,4.63
2018-04-23T21:58:28.385Z,3.20
2018-04-23T22:00:56.406Z,7.00
2018-04-23T22:03:24.428Z,3.23
2018-04-23T22:05:52.425Z,4.10
2018-04-23T22:08:20.408Z,2.20
2018-04-23T22:10:48.411Z,2.23
2018-04-23T22:13:16.725Z,5.53
2018-04-23T22:15:44.786Z,6.03
2018-04-23T22:18:12.860Z,1.90
2018-04-23T22:20:40.807Z,3.10
2018-04-23T22:23:09.398Z,3.60
2018-04-23T22:25:37.400Z,4.00
2018-04-23T22:28:05.405Z,3.27
2018-04-23T22:30:33.411Z,4.03
2018-04-23T22:33:01.442Z,4.90
2018-04-23T22:35:29.437Z,5.70
2018-04-23T22:37:57.438Z,5.10
2018-04-23T22:40:25.448Z,4.67
2018-04-23T22:42:53.438Z,3.10
2018-04-23T22:45:21.432Z,6.47
2018-04-23T22:47:49.420Z,4.50
2018-04-23T22:50:17.402Z,5.67
2018-04-23T22:52:45.416Z,4.50
2018-04-23T22:55:13.409Z,10.67
2018-04-23T22:57:41.382Z,4.80
2018-04-23T23:00:09.377Z,3.00
2018-04-23T23:02:37.418Z,3.63
2018-04-23T23:05:05.387Z,4.50
2018-04-23T23:07:33.383Z,3.87
2018-04-23T23:10:01.396Z,5.97
2018-04-23T23:12:29.396Z,7.30
2018-04-23T23:14:57.396Z,3.77
2018-04-23T23:17:26.135Z,4.50
2018-04-23T23:19:54.132Z,5.60
2018-04-23T23:22:22.186Z,3.70
2018-04-23T23:24:50.388Z,4.20
2018-04-23T23:27:18.383Z,7.40
2018-04-23T23:29:46.383Z,7.40
2018-04-23T23:32:14.369Z,4.77
2018-04-23T23:34:42.375Z,4.03
2018-04-23T23:37:10.365Z,6.50
2018-04-23T23:39:38.345Z,4.37
2018-04-23T23:42:06.327Z,4.80
2018-04-23T23:44:34.344Z,6.43
2018-04-23T23:47:02.380Z,8.03
2018-04-23T23:49:30.376Z,5.77
2018-04-23T23:51:58.345Z,6.30
2018-04-23T23:54:26.352Z,4.50
2018-04-23T23:56:54.364Z,6.33
2018-04-23T23:59:22.359Z,7.40
